createdAt,value
2023-03-04T00:01:43.266Z,344.84
2023-03-04T00:06:50.381Z,344.58
2023-03-04T00:11:57.568Z,344.66
2023-03-04T00:17:04.766Z,344.66
2023-03-04T00:22:11.936Z,344.01
2023-03-04T00:27:19.137Z,344.50
2023-03-04T00:32:26.426Z,344.41
2023-03-04T00:37:33.484Z,344.46
2023-03-04T00:42:40.664Z,344.50
2023-03-04T00:47:47.873Z,344.64
2023-03-04T00:52:55.056Z,344.76
2023-03-04T00:58:02.440Z,345.38
2023-03-04T01:03:09.861Z,345.36
2023-03-04T01:08:17.232Z,346.20
2023-03-04T01:13:24.646Z,346.42
2023-03-04T01:18:32.160Z,346.58
2023-03-04T01:23:39.602Z,346.83
2023-03-04T01:28:50.359Z,346.94
2023-03-04T01:33:58.068Z,346.93
2023-03-04T01:39:10.232Z,347.49
2023-03-04T01:44:17.695Z,347.60
2023-03-04T01:49:25.444Z,348.09
2023-03-04T01:54:33.104Z,348.12
2023-03-04T01:59:40.559Z,348.38
2023-03-04T02:04:48.093Z,348.88
2023-03-04T02:09:57.065Z,349.06
2023-03-04T02:15:05.351Z,349.26
2023-03-04T02:20:12.685Z,349.26
2023-03-04T02:25:19.921Z,349.03
2023-03-04T02:30:27.135Z,349.34
2023-03-04T02:35:34.493Z,349.54
2023-03-04T02:40:41.588Z,349.67
2023-03-04T02:45:48.767Z,349.48
2023-03-04T02:50:55.954Z,349.53
2023-03-04T02:56:03.151Z,349.91
2023-03-04T03:01:10.381Z,349.64
2023-03-04T03:06:17.630Z,349.40
2023-03-04T03:11:26.605Z,349.09
2023-03-04T03:16:32.018Z,349.40
2023-03-04T03:21:39.200Z,349.39
2023-03-04T03:26:46.510Z,349.19
2023-03-04T03:31:53.970Z,349.35
2023-03-04T03:37:01.315Z,349.27
2023-03-04T03:42:08.708Z,349.31
2023-03-04T03:47:25.264Z,348.49
2023-03-04T03:52:28.047Z,348.36
2023-03-04T03:57:35.412Z,348.61
2023-03-04T04:02:42.983Z,348.16
2023-03-04T04:07:50.643Z,348.50
2023-03-04T04:12:57.622Z,348.69
2023-03-04T04:18:04.987Z,348.84
2023-03-04T04:23:12.265Z,348.52
2023-03-04T04:28:19.619Z,348.28
2023-03-04T04:33:26.873Z,347.95
2023-03-04T04:38:37.929Z,347.78
2023-03-04T04:43:45.251Z,347.75
2023-03-04T04:48:52.601Z,347.54
2023-03-04T04:54:00.035Z,347.57
2023-03-04T04:59:07.353Z,347.71
2023-03-04T05:04:14.780Z,347.53
2023-03-04T05:09:24.102Z,347.46
2023-03-04T05:14:31.437Z,347.53
2023-03-04T05:19:38.723Z,347.66
2023-03-04T05:24:46.157Z,347.36
2023-03-04T05:29:53.470Z,347.30
2023-03-04T05:35:00.783Z,346.96
2023-03-04T05:40:08.350Z,346.68
2023-03-04T05:45:15.695Z,346.26
2023-03-04T05:50:23.068Z,346.16
2023-03-04T05:55:30.394Z,346.07
2023-03-04T06:00:37.752Z,346.07
2023-03-04T06:05:45.129Z,345.55
2023-03-04T06:10:52.538Z,344.72
2023-03-04T06:15:59.763Z,344.68
2023-03-04T06:21:07.013Z,344.20
2023-03-04T06:26:14.376Z,343.83
2023-03-04T06:31:21.591Z,343.24
2023-03-04T06:36:28.857Z,342.68
2023-03-04T06:41:36.192Z,342.52
2023-03-04T06:46:43.623Z,343.19
2023-03-04T06:51:50.830Z,342.73
2023-03-04T06:56:58.247Z,342.38
2023-03-04T07:02:05.504Z,341.26
2023-03-04T07:07:12.782Z,340.40
2023-03-04T07:12:20.072Z,339.59
2023-03-04T07:17:27.386Z,339.45
2023-03-04T07:22:34.731Z,339.48
2023-03-04T07:27:42.098Z,338.79
2023-03-04T07:32:49.641Z,338.27
2023-03-04T07:37:56.851Z,338.27
2023-03-04T07:43:04.245Z,338.08
2023-03-04T07:48:11.462Z,338.12
2023-03-04T07:53:18.802Z,338.06
2023-03-04T07:58:26.261Z,337.92
2023-03-04T08:03:33.605Z,338.51
2023-03-04T08:08:40.947Z,338.26
2023-03-04T08:13:48.348Z,338.15
2023-03-04T08:18:55.727Z,338.47
2023-03-04T08:24:03.058Z,338.79
2023-03-04T08:29:10.563Z,337.89
2023-03-04T08:34:17.823Z,338.84
2023-03-04T08:39:25.135Z,338.98
2023-03-04T08:44:32.434Z,339.16
2023-03-04T08:49:39.708Z,339.60
2023-03-04T08:54:46.992Z,339.34
2023-03-04T08:59:54.478Z,339.08
2023-03-04T09:05:01.733Z,339.22
2023-03-04T09:10:09.047Z,339.12
2023-03-04T09:15:16.332Z,338.98
2023-03-04T09:20:23.725Z,339.65
2023-03-04T09:25:31.050Z,339.92
2023-03-04T09:30:38.324Z,340.03
2023-03-04T09:35:45.679Z,340.15
2023-03-04T09:40:53.007Z,340.36
2023-03-04T09:46:00.331Z,340.38
2023-03-04T09:51:07.639Z,340.19
2023-03-04T09:56:14.903Z,340.95
2023-03-04T10:01:22.324Z,340.75
2023-03-04T10:06:29.683Z,341.40
2023-03-04T10:11:37.017Z,341.49
2023-03-04T10:16:44.356Z,341.96
2023-03-04T10:21:51.871Z,342.77
2023-03-04T10:26:59.256Z,343.23
2023-03-04T10:32:06.762Z,343.27
2023-03-04T10:37:14.277Z,343.80
2023-03-04T10:42:21.808Z,344.14
2023-03-04T10:47:29.006Z,344.18
2023-03-04T10:52:36.282Z,344.31
2023-03-04T10:57:43.813Z,344.94
2023-03-04T11:02:51.253Z,345.10
2023-03-04T11:07:58.680Z,345.53
2023-03-04T11:13:05.997Z,346.46
2023-03-04T11:18:13.391Z,346.37
2023-03-04T11:23:20.652Z,346.87
2023-03-04T11:28:27.977Z,347.49
2023-03-04T11:33:35.391Z,348.53
2023-03-04T11:38:42.687Z,348.88
2023-03-04T11:43:49.938Z,349.26
2023-03-04T11:48:57.397Z,349.24
2023-03-04T11:54:04.861Z,350.02
2023-03-04T11:59:12.585Z,350.36
2023-03-04T12:04:20.087Z,350.54
2023-03-04T12:09:27.396Z,350.93
2023-03-04T12:14:35.452Z,351.52
2023-03-04T12:19:42.940Z,351.47
2023-03-04T12:24:50.219Z,352.75
2023-03-04T12:29:57.395Z,353.10
2023-03-04T12:35:04.586Z,354.10
2023-03-04T12:40:11.753Z,354.65
2023-03-04T12:45:18.929Z,355.07
2023-03-04T12:50:26.106Z,355.39
2023-03-04T12:55:33.273Z,356.29
2023-03-04T13:00:40.486Z,356.64
2023-03-04T13:05:47.708Z,357.57
2023-03-04T13:10:54.850Z,357.99
2023-03-04T13:16:02.070Z,358.25
2023-03-04T13:21:09.259Z,358.43
2023-03-04T13:26:16.417Z,358.86
2023-03-04T13:31:23.701Z,359.54
2023-03-04T13:36:30.808Z,359.64
2023-03-04T13:41:37.986Z,360.22
2023-03-04T13:46:45.201Z,360.75
2023-03-04T13:51:52.535Z,361.10
2023-03-04T13:56:59.841Z,361.53
2023-03-04T14:02:07.161Z,361.72
2023-03-04T14:07:14.578Z,362.08
2023-03-04T14:12:21.858Z,362.52
2023-03-04T14:17:29.190Z,362.65
2023-03-04T14:22:36.397Z,362.71
2023-03-04T14:27:43.627Z,363.07
2023-03-04T14:32:50.840Z,363.00
2023-03-04T14:37:58.057Z,363.76
2023-03-04T14:43:05.237Z,364.62
2023-03-04T14:48:12.641Z,364.30
2023-03-04T14:53:20.292Z,364.69
2023-03-04T14:58:27.885Z,364.91
2023-03-04T15:03:35.266Z,365.21
2023-03-04T15:08:42.742Z,365.34
2023-03-04T15:13:50.006Z,365.94
2023-03-04T15:18:57.237Z,366.27
2023-03-04T15:24:04.513Z,367.00
2023-03-04T15:29:12.021Z,367.27
2023-03-04T15:34:19.369Z,367.51
2023-03-04T15:39:26.545Z,367.94
2023-03-04T15:44:33.778Z,367.91
2023-03-04T15:49:41.031Z,368.29
2023-03-04T15:54:48.332Z,368.04
2023-03-04T15:59:55.868Z,368.15
2023-03-04T16:05:03.313Z,367.42
2023-03-04T16:10:10.805Z,367.68
2023-03-04T16:15:18.393Z,367.79
2023-03-04T16:20:26.028Z,367.57
2023-03-04T16:25:33.448Z,367.59
2023-03-04T16:30:40.657Z,367.38
2023-03-04T16:35:48.159Z,367.37
2023-03-04T16:40:55.346Z,367.24
2023-03-04T16:46:02.725Z,367.24
2023-03-04T16:51:09.868Z,367.30
2023-03-04T16:56:17.184Z,367.90
2023-03-04T17:01:24.425Z,367.77
2023-03-04T17:06:31.873Z,367.64
2023-03-04T17:11:39.312Z,367.41
2023-03-04T17:16:46.798Z,367.15
2023-03-04T17:21:54.415Z,366.85
2023-03-04T17:27:02.150Z,366.11
2023-03-04T17:32:09.712Z,366.13
2023-03-04T17:37:17.014Z,365.90
2023-03-04T17:42:24.600Z,365.37
2023-03-04T17:47:32.916Z,365.15
2023-03-04T17:52:39.651Z,365.39
2023-03-04T17:57:47.135Z,364.76
2023-03-04T18:02:54.824Z,364.21
2023-03-04T18:08:02.437Z,363.91
2023-03-04T18:13:10.196Z,363.78
2023-03-04T18:18:17.762Z,363.76
2023-03-04T18:23:26.606Z,363.77
2023-03-04T18:28:34.248Z,363.75
2023-03-04T18:33:41.840Z,363.88
2023-03-04T18:38:49.461Z,363.98
2023-03-04T18:43:58.133Z,364.13
2023-03-04T18:49:05.817Z,363.71
2023-03-04T18:54:13.542Z,363.67
2023-03-04T18:59:21.268Z,364.11
2023-03-04T19:04:28.853Z,364.07
2023-03-04T19:09:36.491Z,363.39
2023-03-04T19:14:44.109Z,362.09
2023-03-04T19:19:51.418Z,361.66
2023-03-04T19:24:58.909Z,361.17
2023-03-04T19:30:06.336Z,360.88
2023-03-04T19:35:13.733Z,360.51
2023-03-04T19:40:21.340Z,360.37
2023-03-04T19:45:30.030Z,360.31
2023-03-04T19:50:37.533Z,359.93
2023-03-04T19:55:45.113Z,359.12
2023-03-04T20:00:52.800Z,358.90
2023-03-04T20:06:00.644Z,358.16
2023-03-04T20:11:08.413Z,356.77
2023-03-04T20:16:16.298Z,356.17
2023-03-04T20:21:23.791Z,354.84
2023-03-04T20:26:31.421Z,353.37
2023-03-04T20:31:39.043Z,353.46
2023-03-04T20:36:46.739Z,352.15
2023-03-04T20:41:54.360Z,352.16
2023-03-04T20:47:01.989Z,350.93
2023-03-04T20:52:09.310Z,350.09
2023-03-04T20:57:16.785Z,349.70
2023-03-04T21:02:24.354Z,349.21
2023-03-04T21:07:32.693Z,349.15
2023-03-04T21:12:39.989Z,349.58
2023-03-04T21:17:47.468Z,350.15
2023-03-04T21:22:54.840Z,350.65
2023-03-04T21:28:02.373Z,350.42
2023-03-04T21:33:10.131Z,350.36
2023-03-04T21:38:18.839Z,350.69
2023-03-04T21:43:26.157Z,351.22
2023-03-04T21:48:33.592Z,350.53
2023-03-04T21:53:40.964Z,350.66
2023-03-04T21:58:48.391Z,351.27
2023-03-04T22:03:56.417Z,351.20
2023-03-04T22:09:03.500Z,351.50
2023-03-04T22:14:10.750Z,351.08
2023-03-04T22:19:18.004Z,351.34
2023-03-04T22:24:25.156Z,351.41
2023-03-04T22:29:32.361Z,351.36
2023-03-04T22:34:39.556Z,351.63
2023-03-04T22:39:46.719Z,352.08
2023-03-04T22:44:53.970Z,352.23
2023-03-04T22:50:01.233Z,352.48
2023-03-04T22:55:08.380Z,353.48
2023-03-04T23:00:15.658Z,353.93
2023-03-04T23:05:22.985Z,353.79
2023-03-04T23:10:30.151Z,354.44
2023-03-04T23:15:37.414Z,354.38
2023-03-04T23:20:44.640Z,354.24
2023-03-04T23:25:51.844Z,354.79
2023-03-04T23:30:59.224Z,354.75
2023-03-04T23:36:06.289Z,354.56
2023-03-04T23:41:13.533Z,354.43
2023-03-04T23:46:21.432Z,354.86
2023-03-04T23:51:28.634Z,355.09
2023-03-04T23:56:35.783Z,355.42
